Time;durP1;ratioP1;P1;durP2;ratioP2;P2;SDS_P1;SDS_P2;PMS_P1;PMS_P2;Temp;Humidity;BMP_temperature;BMP_pressure;BME280_temperature;BME280_humidity;BME280_pressure;Samples;Min_cycle;Max_cycle;Signal;HPM_P1;HPM_P2
2021/12/31 00:02:07;;;;;;;8.80;3.30;;;;;;;;;;5073661;28;20394;-63
2021/12/31 00:04:33;;;;;;;8.80;3.53;;;;;;;;;;5070979;28;20036;-63
2021/12/31 00:06:58;;;;;;;7.10;3.03;;;;;;;;;;5073194;28;20185;-63
2021/12/31 00:09:24;;;;;;;7.70;2.92;;;;;;;;;;5071332;28;20034;-63
2021/12/31 00:11:49;;;;;;;8.63;3.05;;;;;;;;;;5067002;28;20128;-63
2021/12/31 00:14:15;;;;;;;9.07;3.33;;;;;;;;;;5068392;28;20045;-63
2021/12/31 00:16:41;;;;;;;5.13;3.00;;;;;;;;;;5072099;28;20024;-65
2021/12/31 00:19:06;;;;;;;8.68;2.72;;;;;;;;;;5068449;28;20128;-63
2021/12/31 00:21:36;;;;;;;6.30;2.55;;;;;;;;;;5073875;28;20024;-63
2021/12/31 00:24:02;;;;;;;6.53;2.77;;;;;;;;;;5069929;28;20105;-63
2021/12/31 00:26:27;;;;;;;6.10;3.00;;;;;;;;;;5067912;28;20277;-63
2021/12/31 00:28:53;;;;;;;7.30;3.03;;;;;;;;;;5069960;28;20032;-63
2021/12/31 00:31:18;;;;;;;6.55;3.03;;;;;;;;;;5070236;28;20537;-63
2021/12/31 00:33:44;;;;;;;6.10;2.90;;;;;;;;;;5072425;28;20042;-65
2021/12/31 00:36:09;;;;;;;5.65;2.80;;;;;;;;;;5070186;28;20470;-62
2021/12/31 00:38:34;;;;;;;5.15;2.53;;;;;;;;;;5071623;28;20118;-63
2021/12/31 00:41:00;;;;;;;7.07;2.65;;;;;;;;;;5067945;28;20032;-63
2021/12/31 00:43:25;;;;;;;5.80;2.50;;;;;;;;;;5069670;28;20048;-63
2021/12/31 00:45:51;;;;;;;8.23;2.85;;;;;;;;;;5070237;28;20497;-63
2021/12/31 00:48:16;;;;;;;8.15;2.40;;;;;;;;;;5072705;28;20047;-62
2021/12/31 00:50:42;;;;;;;7.18;2.65;;;;;;;;;;5071502;28;20028;-63
2021/12/31 00:53:08;;;;;;;8.88;2.72;;;;;;;;;;5071930;28;20039;-62
2021/12/31 00:55:33;;;;;;;8.13;2.70;;;;;;;;;;5070298;28;20066;-62
2021/12/31 00:57:59;;;;;;;5.82;2.50;;;;;;;;;;5069347;28;20040;-62
2021/12/31 01:00:25;;;;;;;5.88;2.15;;;;;;;;;;5068737;28;20059;-62
2021/12/31 01:02:50;;;;;;;5.88;2.30;;;;;;;;;;5070958;28;20405;-62
2021/12/31 01:05:16;;;;;;;4.85;2.25;;;;;;;;;;5070044;28;20047;-62
2021/12/31 01:07:41;;;;;;;6.63;2.30;;;;;;;;;;5070443;28;20066;-62
2021/12/31 01:10:12;;;;;;;6.13;2.50;;;;;;;;;;5070203;28;20040;-62
2021/12/31 01:12:37;;;;;;;5.77;2.30;;;;;;;;;;5071849;28;20474;-62
2021/12/31 01:15:07;;;;;;;5.97;2.40;;;;;;;;;;5066363;28;20113;-63
2021/12/31 01:18:15;;;;;;;5.25;2.10;;;;;;;;;;5071965;28;20029;-63
2021/12/31 01:20:22;;;;;;;4.75;2.30;;;;;;;;;;5070369;28;20032;-63
2021/12/31 01:22:48;;;;;;;6.85;2.70;;;;;;;;;;5071854;28;20462;-65
2021/12/31 01:25:14;;;;;;;4.72;2.10;;;;;;;;;;5069302;28;20036;-64
2021/12/31 01:27:40;;;;;;;5.97;2.33;;;;;;;;;;5067203;28;20047;-63
2021/12/31 01:30:07;;;;;;;6.95;2.13;;;;;;;;;;5067976;28;20074;-63
2021/12/31 01:32:33;;;;;;;4.35;2.10;;;;;;;;;;5070254;28;20037;-63
2021/12/31 01:34:59;;;;;;;5.28;2.00;;;;;;;;;;5070817;28;20037;-63
2021/12/31 01:37:24;;;;;;;4.35;2.00;;;;;;;;;;5071546;28;20145;-63
2021/12/31 01:39:50;;;;;;;8.68;2.40;;;;;;;;;;5069212;28;20120;-63
2021/12/31 01:42:18;;;;;;;4.30;1.85;;;;;;;;;;5071731;28;20462;-63
2021/12/31 01:44:52;;;;;;;4.10;1.85;;;;;;;;;;5066536;28;20460;-63
2021/12/31 01:47:22;;;;;;;5.55;2.17;;;;;;;;;;5071247;28;20036;-63
2021/12/31 01:49:56;;;;;;;3.70;1.75;;;;;;;;;;5069392;28;20401;-65
2021/12/31 01:52:23;;;;;;;7.13;2.25;;;;;;;;;;5071957;28;20032;-63
2021/12/31 01:54:49;;;;;;;8.32;2.20;;;;;;;;;;5070624;28;20394;-65
2021/12/31 01:57:14;;;;;;;5.93;2.00;;;;;;;;;;5071740;28;20031;-63
2021/12/31 01:59:41;;;;;;;10.43;2.35;;;;;;;;;;5069177;28;20032;-63
2021/12/31 02:02:07;;;;;;;4.13;1.98;;;;;;;;;;5067648;28;20028;-63
2021/12/31 02:04:34;;;;;;;5.13;1.70;;;;;;;;;;5068081;28;20115;-63
2021/12/31 02:06:59;;;;;;;7.43;2.20;;;;;;;;;;5070080;28;20040;-63
2021/12/31 02:09:25;;;;;;;5.18;1.83;;;;;;;;;;5071125;28;20028;-62
2021/12/31 02:11:53;;;;;;;4.50;2.00;;;;;;;;;;5065237;28;20492;-65
2021/12/31 02:14:19;;;;;;;4.63;1.92;;;;;;;;;;5052993;28;20056;-64
2021/12/31 02:16:45;;;;;;;3.42;1.67;;;;;;;;;;5069980;28;20028;-67
2021/12/31 02:19:16;;;;;;;5.18;2.08;;;;;;;;;;5068022;28;20548;-63
2021/12/31 02:21:45;;;;;;;8.73;2.20;;;;;;;;;;5070416;28;20119;-63
2021/12/31 02:24:12;;;;;;;6.15;2.00;;;;;;;;;;5068790;28;20165;-63
2021/12/31 02:26:38;;;;;;;2.92;1.73;;;;;;;;;;5070289;28;20366;-63
2021/12/31 02:29:04;;;;;;;3.85;1.88;;;;;;;;;;5068891;28;20032;-63
2021/12/31 02:31:30;;;;;;;3.72;1.75;;;;;;;;;;5068033;28;20033;-63
2021/12/31 02:33:55;;;;;;;6.40;1.98;;;;;;;;;;5066442;28;20095;-63
2021/12/31 02:36:21;;;;;;;5.85;2.00;;;;;;;;;;5069303;28;20056;-63
2021/12/31 02:38:46;;;;;;;4.50;1.92;;;;;;;;;;5071071;28;20041;-62
2021/12/31 02:41:12;;;;;;;5.05;1.88;;;;;;;;;;5066971;28;20050;-62
2021/12/31 02:43:38;;;;;;;5.40;2.00;;;;;;;;;;5064050;28;20040;-62
2021/12/31 02:46:04;;;;;;;7.10;2.20;;;;;;;;;;5068105;28;20036;-63
2021/12/31 02:48:31;;;;;;;5.60;2.03;;;;;;;;;;5070426;28;20029;-62
2021/12/31 02:51:00;;;;;;;4.78;1.80;;;;;;;;;;5069207;28;20161;-62
2021/12/31 02:53:31;;;;;;;5.40;1.98;;;;;;;;;;5067871;28;20081;-62
2021/12/31 02:56:04;;;;;;;7.22;2.15;;;;;;;;;;5059914;28;20037;-63
2021/12/31 02:58:30;;;;;;;5.25;2.10;;;;;;;;;;5063586;28;20025;-62
2021/12/31 03:00:57;;;;;;;4.07;1.90;;;;;;;;;;5069953;28;20501;-63
2021/12/31 03:03:23;;;;;;;3.83;2.00;;;;;;;;;;5069695;28;20379;-62
2021/12/31 03:05:52;;;;;;;4.97;1.90;;;;;;;;;;5070289;28;20380;-62
2021/12/31 03:08:19;;;;;;;3.83;1.90;;;;;;;;;;5070645;28;20024;-62
2021/12/31 03:10:46;;;;;;;8.70;1.90;;;;;;;;;;5076689;28;20054;-62
2021/12/31 03:13:14;;;;;;;4.72;2.03;;;;;;;;;;5070151;28;20093;-62
2021/12/31 03:15:41;;;;;;;4.63;2.20;;;;;;;;;;5071259;28;20071;-63
2021/12/31 03:18:09;;;;;;;4.93;1.92;;;;;;;;;;5068127;28;20051;-62
2021/12/31 03:20:40;;;;;;;5.10;1.98;;;;;;;;;;5069435;28;20119;-62
2021/12/31 03:23:06;;;;;;;5.40;2.00;;;;;;;;;;5070036;28;20032;-65
2021/12/31 03:25:31;;;;;;;5.63;2.10;;;;;;;;;;5072130;28;20127;-62
2021/12/31 03:27:57;;;;;;;4.80;1.80;;;;;;;;;;5080110;28;20040;-62
2021/12/31 03:30:22;;;;;;;5.63;1.85;;;;;;;;;;5067172;28;20033;-62
2021/12/31 03:32:48;;;;;;;3.92;2.17;;;;;;;;;;5073934;28;20107;-62
2021/12/31 03:35:13;;;;;;;5.57;2.17;;;;;;;;;;5072623;28;20028;-62
2021/12/31 03:37:39;;;;;;;5.78;2.33;;;;;;;;;;5072972;28;20029;-62
2021/12/31 03:40:05;;;;;;;5.55;2.10;;;;;;;;;;5073014;28;20475;-63
2021/12/31 03:42:31;;;;;;;5.25;2.10;;;;;;;;;;5069379;28;20030;-62
2021/12/31 03:44:57;;;;;;;5.28;2.28;;;;;;;;;;5068793;28;20112;-64
2021/12/31 03:47:22;;;;;;;4.60;2.10;;;;;;;;;;5073322;28;20135;-62
2021/12/31 03:49:48;;;;;;;6.20;2.25;;;;;;;;;;5074200;28;20519;-62
2021/12/31 03:52:13;;;;;;;6.50;2.13;;;;;;;;;;5071869;28;20024;-62
2021/12/31 03:54:39;;;;;;;5.63;2.22;;;;;;;;;;5073535;28;20028;-62
2021/12/31 03:57:04;;;;;;;5.05;2.20;;;;;;;;;;5071878;28;20033;-62
2021/12/31 03:59:29;;;;;;;4.80;1.92;;;;;;;;;;5073768;28;20024;-62
2021/12/31 04:01:55;;;;;;;2.95;1.92;;;;;;;;;;5069700;28;20079;-65
2021/12/31 04:04:20;;;;;;;4.75;1.60;;;;;;;;;;5071227;28;20036;-64
2021/12/31 04:06:46;;;;;;;4.60;2.05;;;;;;;;;;5068540;28;20040;-62
2021/12/31 04:09:11;;;;;;;7.50;2.05;;;;;;;;;;5071079;28;20036;-62
2021/12/31 04:11:36;;;;;;;2.47;1.60;;;;;;;;;;5071843;28;20039;-62
2021/12/31 04:14:02;;;;;;;5.70;1.83;;;;;;;;;;5067800;28;20473;-62
2021/12/31 04:16:27;;;;;;;3.80;1.90;;;;;;;;;;5069673;28;20146;-62
2021/12/31 04:18:53;;;;;;;3.45;1.73;;;;;;;;;;5070405;28;20047;-62
2021/12/31 04:21:20;;;;;;;4.07;1.92;;;;;;;;;;5071898;28;20028;-62
2021/12/31 04:24:04;;;;;;;4.28;2.05;;;;;;;;;;5070805;28;20028;-63
2021/12/31 04:26:29;;;;;;;4.45;1.70;;;;;;;;;;5072386;28;20032;-61
2021/12/31 04:28:55;;;;;;;6.65;1.90;;;;;;;;;;5069189;28;20041;-64
2021/12/31 04:31:21;;;;;;;5.57;2.00;;;;;;;;;;5054175;28;20042;-61
2021/12/31 04:33:46;;;;;;;3.22;1.65;;;;;;;;;;5070375;28;20140;-61
2021/12/31 04:36:12;;;;;;;4.55;1.80;;;;;;;;;;5070519;28;20462;-61
2021/12/31 04:38:38;;;;;;;4.40;1.77;;;;;;;;;;5071364;28;20090;-65
2021/12/31 04:41:03;;;;;;;2.33;1.77;;;;;;;;;;5069600;28;20035;-63
2021/12/31 04:43:29;;;;;;;6.32;2.00;;;;;;;;;;5066623;28;20024;-63
2021/12/31 04:45:55;;;;;;;4.38;1.70;;;;;;;;;;5073116;28;20071;-63
2021/12/31 04:48:20;;;;;;;4.78;1.63;;;;;;;;;;5070976;28;20169;-63
2021/12/31 04:50:46;;;;;;;2.58;1.70;;;;;;;;;;5071270;28;20029;-63
2021/12/31 04:53:11;;;;;;;4.95;1.67;;;;;;;;;;5070210;28;20036;-63
2021/12/31 04:55:37;;;;;;;4.13;1.80;;;;;;;;;;5070927;28;20037;-63
2021/12/31 04:58:02;;;;;;;3.67;1.80;;;;;;;;;;5069097;28;20035;-63
2021/12/31 05:00:27;;;;;;;5.20;1.77;;;;;;;;;;5071654;28;20028;-63
2021/12/31 05:02:53;;;;;;;4.75;1.67;;;;;;;;;;5070360;28;20112;-63
2021/12/31 05:05:18;;;;;;;4.05;1.58;;;;;;;;;;5068868;28;20025;-63
2021/12/31 05:07:44;;;;;;;6.07;1.88;;;;;;;;;;5070099;28;20036;-63
2021/12/31 05:10:10;;;;;;;5.15;1.88;;;;;;;;;;5070835;28;20379;-63
2021/12/31 05:12:37;;;;;;;3.90;1.58;;;;;;;;;;5071000;28;20078;-63
2021/12/31 05:15:08;;;;;;;4.15;1.75;;;;;;;;;;5070285;28;20060;-63
2021/12/31 05:17:35;;;;;;;4.88;1.75;;;;;;;;;;5067601;28;20034;-64
2021/12/31 05:20:01;;;;;;;4.85;1.80;;;;;;;;;;5069876;28;20107;-65
2021/12/31 05:22:26;;;;;;;7.03;2.22;;;;;;;;;;5071722;28;20111;-64
2021/12/31 05:24:51;;;;;;;2.95;1.60;;;;;;;;;;5070717;28;20029;-63
2021/12/31 05:27:17;;;;;;;4.20;1.63;;;;;;;;;;5068678;28;20068;-63
2021/12/31 05:29:42;;;;;;;4.25;1.70;;;;;;;;;;5071558;28;20153;-63
2021/12/31 05:32:08;;;;;;;6.40;1.80;;;;;;;;;;5070431;28;20033;-63
2021/12/31 05:34:33;;;;;;;5.47;1.73;;;;;;;;;;5070340;28;20085;-63
2021/12/31 05:36:58;;;;;;;4.75;1.90;;;;;;;;;;5071076;28;20028;-65
2021/12/31 05:39:25;;;;;;;3.75;1.75;;;;;;;;;;5070246;28;20093;-61
2021/12/31 05:41:51;;;;;;;5.63;1.83;;;;;;;;;;5070479;28;20067;-63
2021/12/31 05:44:16;;;;;;;2.30;1.50;;;;;;;;;;5067673;28;20071;-65
2021/12/31 05:46:45;;;;;;;3.47;1.58;;;;;;;;;;5060822;28;20039;-62
2021/12/31 05:49:10;;;;;;;3.47;1.77;;;;;;;;;;5072180;28;20033;-63
2021/12/31 05:51:36;;;;;;;4.60;1.88;;;;;;;;;;5069607;28;20443;-63
2021/12/31 05:54:01;;;;;;;3.65;1.70;;;;;;;;;;5068503;28;20050;-65
2021/12/31 05:56:27;;;;;;;4.55;1.80;;;;;;;;;;5070019;28;20044;-63
2021/12/31 05:58:53;;;;;;;3.88;1.75;;;;;;;;;;5068756;28;20070;-62
2021/12/31 06:01:18;;;;;;;4.50;1.92;;;;;;;;;;5051360;28;20411;-61
2021/12/31 06:03:43;;;;;;;5.70;1.70;;;;;;;;;;5070926;28;20040;-62
2021/12/31 06:06:09;;;;;;;3.47;1.75;;;;;;;;;;5069785;28;20035;-63
2021/12/31 06:08:34;;;;;;;4.47;1.75;;;;;;;;;;5070538;28;20033;-62
2021/12/31 06:11:00;;;;;;;2.53;1.70;;;;;;;;;;5070663;28;20056;-62
2021/12/31 06:13:25;;;;;;;3.28;1.48;;;;;;;;;;5067375;28;20131;-63
2021/12/31 06:15:57;;;;;;;7.72;2.75;;;;;;;;;;5071321;28;20034;-63
2021/12/31 06:18:22;;;;;;;2.40;1.70;;;;;;;;;;5069170;28;20258;-63
2021/12/31 06:20:48;;;;;;;3.13;1.67;;;;;;;;;;5060103;28;20462;-62
2021/12/31 06:23:13;;;;;;;3.50;1.70;;;;;;;;;;5064293;28;20042;-65
2021/12/31 06:25:39;;;;;;;4.90;2.08;;;;;;;;;;5070879;28;20063;-63
2021/12/31 06:28:05;;;;;;;3.08;2.08;;;;;;;;;;5067633;28;20037;-65
2021/12/31 06:30:30;;;;;;;6.03;1.65;;;;;;;;;;5069088;28;20032;-63
2021/12/31 06:32:56;;;;;;;4.32;1.73;;;;;;;;;;5069490;28;20055;-63
2021/12/31 06:35:21;;;;;;;4.45;1.83;;;;;;;;;;5066396;28;20020;-63
2021/12/31 06:37:52;;;;;;;5.90;3.13;;;;;;;;;;5070267;28;20096;-64
2021/12/31 06:40:18;;;;;;;2.70;1.70;;;;;;;;;;5053945;28;20033;-62
2021/12/31 06:42:43;;;;;;;3.85;1.73;;;;;;;;;;5069790;28;20033;-63
2021/12/31 06:45:09;;;;;;;5.05;1.90;;;;;;;;;;5066369;28;20394;-63
2021/12/31 06:47:34;;;;;;;4.28;2.00;;;;;;;;;;5062661;28;20466;-62
2021/12/31 06:50:00;;;;;;;2.72;1.70;;;;;;;;;;5068678;28;20125;-62
2021/12/31 06:52:26;;;;;;;5.15;2.33;;;;;;;;;;5064452;28;20033;-62
2021/12/31 06:54:51;;;;;;;3.47;1.92;;;;;;;;;;5048254;28;20487;-62
2021/12/31 06:57:17;;;;;;;4.93;2.30;;;;;;;;;;5069203;28;20039;-65
2021/12/31 06:59:42;;;;;;;5.15;2.20;;;;;;;;;;5070946;28;20044;-65
2021/12/31 07:02:08;;;;;;;3.80;1.80;;;;;;;;;;5067718;28;20463;-63
2021/12/31 07:04:33;;;;;;;4.07;1.88;;;;;;;;;;5074493;28;20056;-62
2021/12/31 07:06:59;;;;;;;4.18;2.03;;;;;;;;;;5074651;28;20469;-62
2021/12/31 07:09:24;;;;;;;3.30;1.83;;;;;;;;;;5072067;28;20290;-62
2021/12/31 07:11:49;;;;;;;3.28;2.00;;;;;;;;;;5074056;28;20029;-62
2021/12/31 07:14:15;;;;;;;3.28;1.70;;;;;;;;;;5072634;28;20401;-61
2021/12/31 07:16:40;;;;;;;3.53;1.80;;;;;;;;;;5073257;28;20142;-61
2021/12/31 07:19:06;;;;;;;3.70;2.00;;;;;;;;;;5074030;28;20043;-64
2021/12/31 07:21:31;;;;;;;2.13;1.63;;;;;;;;;;5072678;28;20036;-60
2021/12/31 07:23:56;;;;;;;5.15;2.28;;;;;;;;;;5074647;28;20036;-62
2021/12/31 07:26:22;;;;;;;3.95;1.52;;;;;;;;;;5071944;28;20119;-61
2021/12/31 07:28:47;;;;;;;4.53;1.92;;;;;;;;;;5073028;28;20111;-60
2021/12/31 07:31:14;;;;;;;2.72;1.60;;;;;;;;;;5066572;28;20478;-63
2021/12/31 07:33:40;;;;;;;2.67;1.58;;;;;;;;;;5054718;28;20029;-62
2021/12/31 07:36:06;;;;;;;4.60;1.70;;;;;;;;;;5059047;28;20075;-64
2021/12/31 07:38:34;;;;;;;2.83;1.73;;;;;;;;;;5073680;28;20486;-62
2021/12/31 07:41:01;;;;;;;4.72;2.35;;;;;;;;;;5074000;28;20108;-63
2021/12/31 07:43:26;;;;;;;5.35;2.10;;;;;;;;;;5073551;28;20037;-62
2021/12/31 07:45:53;;;;;;;3.92;2.08;;;;;;;;;;5073033;28;20059;-62
2021/12/31 07:48:19;;;;;;;3.63;1.80;;;;;;;;;;5068822;28;20140;-61
2021/12/31 07:50:45;;;;;;;4.45;2.15;;;;;;;;;;5073697;28;20031;-60
2021/12/31 07:53:10;;;;;;;4.03;1.92;;;;;;;;;;5073288;28;20020;-64
2021/12/31 07:55:36;;;;;;;3.95;1.90;;;;;;;;;;5063749;28;20029;-61
2021/12/31 07:58:03;;;;;;;3.55;1.80;;;;;;;;;;5077168;28;20081;-61
2021/12/31 08:00:28;;;;;;;3.85;1.77;;;;;;;;;;5055341;28;20040;-61
2021/12/31 08:02:58;;;;;;;4.47;1.67;;;;;;;;;;5073059;28;20048;-61
2021/12/31 08:05:25;;;;;;;3.80;1.75;;;;;;;;;;5072535;28;20040;-63
2021/12/31 08:07:51;;;;;;;3.72;2.00;;;;;;;;;;5066519;28;20158;-61
2021/12/31 08:10:17;;;;;;;4.10;2.08;;;;;;;;;;5071293;28;20124;-62
2021/12/31 08:12:42;;;;;;;6.30;1.70;;;;;;;;;;5073566;28;20037;-61
2021/12/31 08:15:08;;;;;;;2.88;1.65;;;;;;;;;;5079765;28;20059;-62
2021/12/31 08:17:34;;;;;;;2.60;1.70;;;;;;;;;;5072038;28;20033;-61
2021/12/31 08:19:59;;;;;;;3.47;1.75;;;;;;;;;;5071488;28;20032;-61
2021/12/31 08:22:24;;;;;;;4.85;1.92;;;;;;;;;;5068331;28;20056;-62
2021/12/31 08:24:51;;;;;;;3.45;1.70;;;;;;;;;;5072835;28;20039;-62
2021/12/31 08:27:17;;;;;;;3.28;1.67;;;;;;;;;;5066789;28;20060;-62
2021/12/31 08:29:43;;;;;;;3.00;1.70;;;;;;;;;;5072803;28;20028;-62
2021/12/31 08:32:09;;;;;;;3.50;1.80;;;;;;;;;;5073659;28;20039;-62
2021/12/31 08:34:34;;;;;;;6.15;2.08;;;;;;;;;;5069026;28;20032;-62
2021/12/31 08:37:00;;;;;;;4.53;1.80;;;;;;;;;;5073653;28;20389;-63
2021/12/31 08:39:25;;;;;;;8.80;1.90;;;;;;;;;;5071847;28;20047;-63
2021/12/31 08:41:51;;;;;;;3.70;1.70;;;;;;;;;;5072920;28;20486;-62
2021/12/31 08:44:17;;;;;;;2.90;1.73;;;;;;;;;;5068803;28;20024;-62
2021/12/31 08:46:44;;;;;;;6.05;1.90;;;;;;;;;;5073446;28;20036;-62
2021/12/31 08:49:09;;;;;;;2.10;1.52;;;;;;;;;;5072923;28;20464;-62
2021/12/31 08:51:36;;;;;;;3.33;2.00;;;;;;;;;;5069917;28;20169;-62
2021/12/31 08:54:02;;;;;;;3.05;1.92;;;;;;;;;;5073084;28;20029;-62
2021/12/31 08:56:27;;;;;;;2.85;1.85;;;;;;;;;;5071756;28;20093;-62
2021/12/31 08:58:53;;;;;;;2.95;2.00;;;;;;;;;;5070633;28;20127;-62
2021/12/31 09:01:19;;;;;;;4.80;2.08;;;;;;;;;;5071902;28;20039;-62
2021/12/31 09:03:44;;;;;;;3.63;1.95;;;;;;;;;;5072571;28;20037;-62
2021/12/31 09:06:11;;;;;;;4.47;1.90;;;;;;;;;;5079860;28;20193;-62
2021/12/31 09:08:37;;;;;;;4.80;1.80;;;;;;;;;;5075536;28;20108;-62
2021/12/31 09:11:02;;;;;;;2.90;1.70;;;;;;;;;;5068466;28;20154;-62
2021/12/31 09:13:28;;;;;;;4.53;1.70;;;;;;;;;;5070124;28;20024;-62
2021/12/31 09:15:55;;;;;;;3.83;2.00;;;;;;;;;;5068759;28;20029;-62
2021/12/31 09:18:20;;;;;;;2.35;1.70;;;;;;;;;;5067075;28;20478;-63
2021/12/31 09:20:46;;;;;;;4.10;2.40;;;;;;;;;;5068983;28;20059;-62
2021/12/31 09:23:11;;;;;;;5.57;2.08;;;;;;;;;;5072341;28;20040;-62
2021/12/31 09:25:37;;;;;;;3.38;2.03;;;;;;;;;;5068164;28;20033;-62
2021/12/31 09:28:03;;;;;;;2.78;1.60;;;;;;;;;;5061930;28;20029;-62
2021/12/31 09:30:28;;;;;;;4.88;2.10;;;;;;;;;;5070325;28;20028;-62
2021/12/31 09:32:54;;;;;;;3.10;1.77;;;;;;;;;;5066339;28;20029;-62
2021/12/31 09:35:19;;;;;;;5.57;2.20;;;;;;;;;;5070348;28;20029;-62
2021/12/31 09:37:45;;;;;;;2.95;1.73;;;;;;;;;;5067255;28;20036;-62
2021/12/31 09:40:11;;;;;;;7.00;1.80;;;;;;;;;;5071018;28;20032;-62
2021/12/31 09:42:38;;;;;;;3.95;2.10;;;;;;;;;;5052007;28;20093;-62
2021/12/31 09:45:04;;;;;;;4.00;2.22;;;;;;;;;;5070782;28;20032;-62
2021/12/31 09:47:30;;;;;;;3.45;2.00;;;;;;;;;;5069671;28;20036;-62
2021/12/31 09:49:55;;;;;;;3.55;2.28;;;;;;;;;;5070674;28;20029;-62
2021/12/31 09:52:22;;;;;;;3.92;2.05;;;;;;;;;;5069744;28;20028;-61
2021/12/31 09:54:49;;;;;;;3.03;1.90;;;;;;;;;;5071726;28;20043;-61
2021/12/31 09:57:16;;;;;;;3.45;2.08;;;;;;;;;;5060629;28;20563;-64
2021/12/31 09:59:42;;;;;;;7.50;1.98;;;;;;;;;;5071192;28;20032;-62
2021/12/31 10:02:09;;;;;;;3.20;1.80;;;;;;;;;;5071923;28;20070;-61
2021/12/31 10:04:56;;;;;;;3.35;1.80;;;;;;;;;;5068823;28;20051;-61
2021/12/31 10:07:23;;;;;;;3.85;1.80;;;;;;;;;;5066227;28;20043;-62
2021/12/31 10:10:06;;;;;;;3.25;1.90;;;;;;;;;;5070370;28;20109;-61
2021/12/31 10:12:49;;;;;;;5.35;2.00;;;;;;;;;;5070066;28;20052;-62
2021/12/31 10:15:17;;;;;;;2.47;1.75;;;;;;;;;;5075856;28;20048;-62
2021/12/31 10:17:43;;;;;;;3.72;2.20;;;;;;;;;;5072334;28;20044;-62
2021/12/31 10:20:09;;;;;;;4.25;2.58;;;;;;;;;;5071704;28;20028;-62
2021/12/31 10:22:35;;;;;;;2.40;1.80;;;;;;;;;;5071020;28;20032;-62
2021/12/31 10:25:00;;;;;;;3.53;1.90;;;;;;;;;;5069719;28;20043;-62
2021/12/31 10:27:26;;;;;;;4.88;2.35;;;;;;;;;;5069633;28;20039;-62
2021/12/31 10:30:03;;;;;;;3.78;1.95;;;;;;;;;;5070599;28;20033;-62
2021/12/31 10:32:31;;;;;;;3.05;1.58;;;;;;;;;;5070189;28;20029;-62
2021/12/31 10:35:13;;;;;;;3.15;1.77;;;;;;;;;;5065987;28;20029;-62
2021/12/31 10:37:47;;;;;;;3.42;2.30;;;;;;;;;;5065952;28;20028;-62
2021/12/31 10:40:40;;;;;;;2.40;1.88;;;;;;;;;;5072028;28;20049;-60
2021/12/31 10:43:07;;;;;;;4.18;2.35;;;;;;;;;;5075531;28;20024;-62
2021/12/31 10:45:32;;;;;;;2.50;1.65;;;;;;;;;;5069734;28;20033;-64
2021/12/31 10:48:09;;;;;;;4.72;1.90;;;;;;;;;;5073171;28;20429;-62
2021/12/31 10:50:35;;;;;;;3.13;1.77;;;;;;;;;;5075213;28;20037;-62
2021/12/31 10:53:08;;;;;;;3.42;2.03;;;;;;;;;;5074578;28;20029;-62
2021/12/31 10:55:39;;;;;;;4.72;2.40;;;;;;;;;;5072560;28;20029;-63
2021/12/31 10:58:08;;;;;;;5.22;2.20;;;;;;;;;;5073672;28;20144;-62
2021/12/31 11:00:37;;;;;;;3.65;2.00;;;;;;;;;;5070543;28;20079;-63
2021/12/31 11:03:04;;;;;;;3.40;2.30;;;;;;;;;;5075101;28;20048;-62
2021/12/31 11:05:29;;;;;;;4.13;1.90;;;;;;;;;;5073936;28;20036;-62
2021/12/31 11:08:00;;;;;;;3.03;1.80;;;;;;;;;;5073122;28;20028;-62
2021/12/31 11:10:27;;;;;;;4.28;2.30;;;;;;;;;;5072482;28;20534;-63
2021/12/31 11:12:53;;;;;;;2.88;2.20;;;;;;;;;;5071599;28;20048;-63
2021/12/31 11:15:20;;;;;;;3.80;2.03;;;;;;;;;;5071818;28;20469;-66
2021/12/31 11:17:45;;;;;;;3.55;2.30;;;;;;;;;;5073763;28;20067;-63
2021/12/31 11:20:13;;;;;;;3.35;2.20;;;;;;;;;;5072347;28;20060;-63
2021/12/31 11:22:39;;;;;;;2.97;1.67;;;;;;;;;;5056583;28;20781;-64
2021/12/31 11:25:21;;;;;;;2.90;2.00;;;;;;;;;;5062933;28;20066;-62
2021/12/31 11:27:47;;;;;;;3.75;2.10;;;;;;;;;;5054323;28;20063;-61
2021/12/31 11:30:42;;;;;;;2.95;1.90;;;;;;;;;;5062608;28;20090;-61
2021/12/31 11:33:14;;;;;;;4.68;1.98;;;;;;;;;;5074066;28;20044;-62
2021/12/31 11:35:58;;;;;;;3.90;1.85;;;;;;;;;;5073556;28;20908;-62
2021/12/31 11:38:24;;;;;;;3.97;2.17;;;;;;;;;;5072581;28;20090;-63
2021/12/31 11:41:04;;;;;;;3.60;2.10;;;;;;;;;;5073908;28;20033;-61
2021/12/31 11:43:31;;;;;;;2.92;1.92;;;;;;;;;;5073387;28;20028;-62
2021/12/31 11:46:09;;;;;;;2.90;2.08;;;;;;;;;;5072608;28;20063;-62
2021/12/31 11:48:43;;;;;;;3.20;2.33;;;;;;;;;;5071883;28;20028;-61
2021/12/31 11:51:10;;;;;;;4.60;2.28;;;;;;;;;;5072112;28;20382;-62
2021/12/31 11:54:01;;;;;;;4.25;2.00;;;;;;;;;;5067410;28;20025;-62
2021/12/31 11:56:35;;;;;;;2.08;1.55;;;;;;;;;;5052228;28;20048;-62
2021/12/31 11:59:07;;;;;;;4.72;2.60;;;;;;;;;;5054738;28;20083;-68
2021/12/31 12:01:43;;;;;;;2.47;1.80;;;;;;;;;;5063691;28;20032;-68
2021/12/31 12:04:21;;;;;;;6.32;2.20;;;;;;;;;;5073615;28;20032;-62
2021/12/31 12:06:58;;;;;;;3.95;1.95;;;;;;;;;;5071869;28;20032;-65
2021/12/31 12:09:36;;;;;;;3.83;2.00;;;;;;;;;;5072527;28;20028;-67
2021/12/31 12:12:13;;;;;;;3.25;1.90;;;;;;;;;;5065477;28;20059;-63
2021/12/31 12:14:41;;;;;;;3.13;2.10;;;;;;;;;;5072826;28;20052;-65
2021/12/31 12:17:31;;;;;;;2.85;1.77;;;;;;;;;;5073958;28;20033;-65
2021/12/31 12:20:02;;;;;;;2.83;1.85;;;;;;;;;;5063808;28;20480;-63
2021/12/31 12:22:44;;;;;;;4.70;2.30;;;;;;;;;;5071232;28;20036;-65
2021/12/31 12:25:26;;;;;;;2.72;1.80;;;;;;;;;;5071369;28;20024;-65
2021/12/31 12:27:56;;;;;;;4.00;2.50;;;;;;;;;;5064575;28;20043;-64
2021/12/31 12:30:23;;;;;;;2.97;2.00;;;;;;;;;;5076891;28;20049;-64
2021/12/31 12:35:21;;;;;;;3.50;2.40;;;;;;;;;;5054392;28;20087;-64
2021/12/31 12:38:14;;;;;;;3.80;2.35;;;;;;;;;;5055273;28;20049;-66
2021/12/31 12:40:42;;;;;;;4.22;2.42;;;;;;;;;;5067342;28;20028;-63
2021/12/31 12:43:25;;;;;;;3.42;1.90;;;;;;;;;;5073250;28;20031;-64
2021/12/31 12:46:02;;;;;;;6.22;2.53;;;;;;;;;;5071257;28;20051;-64
2021/12/31 12:48:42;;;;;;;6.28;2.58;;;;;;;;;;5072367;28;20060;-67
2021/12/31 12:51:13;;;;;;;5.35;2.67;;;;;;;;;;5072969;28;20071;-64
2021/12/31 12:53:46;;;;;;;3.05;1.92;;;;;;;;;;5070182;28;20052;-63
2021/12/31 12:56:16;;;;;;;4.25;2.45;;;;;;;;;;5071627;28;20044;-63
2021/12/31 12:59:02;;;;;;;4.17;2.20;;;;;;;;;;5071797;28;20055;-64
2021/12/31 13:01:41;;;;;;;3.80;2.42;;;;;;;;;;5072258;28;20029;-67
2021/12/31 13:04:09;;;;;;;4.78;2.20;;;;;;;;;;5072220;28;20451;-64
2021/12/31 13:06:35;;;;;;;2.85;1.90;;;;;;;;;;5071677;28;20056;-64
2021/12/31 13:09:10;;;;;;;4.20;2.25;;;;;;;;;;5071996;28;20040;-64
2021/12/31 13:11:38;;;;;;;5.22;1.98;;;;;;;;;;5063321;28;20040;-64
2021/12/31 13:14:11;;;;;;;4.65;2.42;;;;;;;;;;5069993;28;20051;-63
2021/12/31 13:16:37;;;;;;;4.88;1.80;;;;;;;;;;5064563;28;20032;-63
2021/12/31 13:19:07;;;;;;;3.75;2.08;;;;;;;;;;5062851;28;20032;-63
2021/12/31 13:21:34;;;;;;;4.87;2.20;;;;;;;;;;5072032;28;20028;-64
2021/12/31 13:23:59;;;;;;;4.57;2.38;;;;;;;;;;5072304;28;20258;-64
2021/12/31 13:26:30;;;;;;;4.38;2.13;;;;;;;;;;5070816;28;20032;-63
2021/12/31 13:28:57;;;;;;;5.18;2.50;;;;;;;;;;5070863;28;20044;-63
2021/12/31 13:31:49;;;;;;;5.05;2.65;;;;;;;;;;5072171;28;20036;-64
2021/12/31 13:34:22;;;;;;;4.65;2.47;;;;;;;;;;5071205;28;20114;-64
2021/12/31 13:36:52;;;;;;;4.78;2.22;;;;;;;;;;5070979;28;20098;-64
2021/12/31 13:39:32;;;;;;;6.35;2.80;;;;;;;;;;5075063;28;20116;-64
2021/12/31 13:42:04;;;;;;;5.65;2.50;;;;;;;;;;5059899;28;20036;-63
2021/12/31 13:44:34;;;;;;;5.47;2.30;;;;;;;;;;5050575;28;20080;-65
2021/12/31 13:47:19;;;;;;;7.38;2.40;;;;;;;;;;5068372;28;20462;-63
2021/12/31 13:50:08;;;;;;;5.60;2.83;;;;;;;;;;5070544;28;20486;-63
2021/12/31 13:52:37;;;;;;;6.50;2.72;;;;;;;;;;5070734;28;20532;-64
2021/12/31 13:55:26;;;;;;;7.75;3.28;;;;;;;;;;5069745;28;20060;-64
2021/12/31 13:58:00;;;;;;;4.05;2.13;;;;;;;;;;5066530;28;20036;-65
2021/12/31 14:00:29;;;;;;;5.47;2.38;;;;;;;;;;5070091;28;20034;-67
2021/12/31 14:02:55;;;;;;;4.57;2.75;;;;;;;;;;5071376;28;20063;-69
2021/12/31 14:05:24;;;;;;;4.93;2.47;;;;;;;;;;5070755;28;20033;-68
2021/12/31 14:10:28;;;;;;;6.05;2.53;;;;;;;;;;5069572;28;20107;-66
2021/12/31 14:13:02;;;;;;;6.30;3.40;;;;;;;;;;5064328;28;20063;-66
2021/12/31 14:15:38;;;;;;;5.63;3.00;;;;;;;;;;5071255;28;20048;-65
2021/12/31 14:18:09;;;;;;;6.35;3.20;;;;;;;;;;5070666;28;20070;-66
2021/12/31 14:20:39;;;;;;;6.35;2.90;;;;;;;;;;5070106;28;20108;-66
2021/12/31 14:23:05;;;;;;;4.97;2.97;;;;;;;;;;5071506;28;20049;-66
2021/12/31 14:25:33;;;;;;;5.05;2.53;;;;;;;;;;5070564;28;20029;-66
2021/12/31 14:28:00;;;;;;;5.45;2.35;;;;;;;;;;5070591;28;20421;-68
2021/12/31 14:30:26;;;;;;;5.70;2.78;;;;;;;;;;5071245;28;20485;-67
2021/12/31 14:32:53;;;;;;;6.45;2.60;;;;;;;;;;5067070;28;20092;-67
2021/12/31 14:35:24;;;;;;;4.38;2.15;;;;;;;;;;5065999;28;20490;-67
2021/12/31 14:37:50;;;;;;;4.68;2.45;;;;;;;;;;5069930;28;20025;-69
2021/12/31 14:40:18;;;;;;;6.25;2.50;;;;;;;;;;5070629;28;20074;-68
2021/12/31 14:42:44;;;;;;;5.22;2.42;;;;;;;;;;5052767;28;20037;-69
2021/12/31 14:45:10;;;;;;;6.53;2.70;;;;;;;;;;5071227;28;20064;-70
2021/12/31 14:47:41;;;;;;;5.57;2.72;;;;;;;;;;5070360;28;20043;-70
2021/12/31 14:50:09;;;;;;;8.82;2.85;;;;;;;;;;5071102;28;20351;-68
2021/12/31 14:52:36;;;;;;;4.97;2.70;;;;;;;;;;5068468;28;20040;-69
2021/12/31 14:55:05;;;;;;;6.07;2.70;;;;;;;;;;5071220;28;20032;-68